createdAt,value
2018-04-28T00:02:21.563Z,8.10
2018-04-28T00:04:49.185Z,8.10
2018-04-28T00:07:16.804Z,8.00
2018-04-28T00:09:45.282Z,7.90
2018-04-28T00:12:12.903Z,7.80
2018-04-28T00:14:40.536Z,7.80
2018-04-28T00:17:23.200Z,7.80
2018-04-28T00:19:52.756Z,7.60
2018-04-28T00:22:21.162Z,7.60
2018-04-28T00:24:54.332Z,7.60
2018-04-28T00:27:42.664Z,7.50
2018-04-28T00:30:11.875Z,7.60
2018-04-28T00:32:39.462Z,7.50
2018-04-28T00:35:08.688Z,7.40
2018-04-28T00:38:00.247Z,7.40
2018-04-28T00:40:43.347Z,7.40
2018-04-28T00:43:14.402Z,7.30
2018-04-28T00:45:45.924Z,7.30
2018-04-28T00:48:14.983Z,7.30
2018-04-28T00:50:43.460Z,7.20
2018-04-28T00:53:11.072Z,7.10
2018-04-28T00:55:40.265Z,7.00
2018-04-28T01:01:33.284Z,7.00
2018-04-28T01:04:08.701Z,6.90
2018-04-28T01:06:36.333Z,6.90
2018-04-28T01:09:05.117Z,6.90
2018-04-28T01:11:34.707Z,6.80
2018-04-28T01:14:18.126Z,6.80
2018-04-28T01:16:51.093Z,6.70
2018-04-28T01:19:55.185Z,6.70
2018-04-28T01:25:40.449Z,6.60
2018-04-28T01:28:18.876Z,6.60
2018-04-28T01:30:56.755Z,6.50
2018-04-28T01:33:27.180Z,6.50
2018-04-28T01:39:15.357Z,6.40
2018-04-28T01:42:00.769Z,6.40
2018-04-28T01:44:28.380Z,6.30
2018-04-28T01:46:58.386Z,6.30
2018-04-28T01:49:28.640Z,6.20
2018-04-28T01:51:57.763Z,6.10
2018-04-28T01:57:42.089Z,6.10
2018-04-28T02:00:31.280Z,6.00
2018-04-28T02:03:05.569Z,6.00
2018-04-28T02:08:35.843Z,5.90
2018-04-28T02:11:05.536Z,5.80
2018-04-28T02:13:42.713Z,5.80
2018-04-28T02:16:17.038Z,5.80
2018-04-28T02:19:04.334Z,5.80
2018-04-28T02:21:37.665Z,5.70
2018-04-28T02:24:15.818Z,5.60
2018-04-28T02:26:44.332Z,5.60
2018-04-28T02:29:12.858Z,5.60
2018-04-28T02:34:41.975Z,5.60
2018-04-28T02:37:17.153Z,5.50
2018-04-28T02:42:53.971Z,5.50
2018-04-28T02:45:25.111Z,5.50
2018-04-28T02:47:55.158Z,5.40
2018-04-28T02:50:30.744Z,5.50
2018-04-28T02:53:10.227Z,5.40
2018-04-28T02:55:50.217Z,5.40
2018-04-28T02:58:26.560Z,5.40
2018-04-28T03:04:01.760Z,5.30
2018-04-28T03:07:04.798Z,5.30
2018-04-28T03:09:33.013Z,5.30
2018-04-28T03:12:01.426Z,5.20
2018-04-28T03:14:29.257Z,5.20
2018-04-28T03:17:03.575Z,5.10
2018-04-28T03:19:33.809Z,5.10
2018-04-28T03:22:01.428Z,5.00
2018-04-28T03:24:46.468Z,5.00
2018-04-28T03:27:15.785Z,4.90
2018-04-28T03:30:05.689Z,4.80
2018-04-28T03:32:37.807Z,4.80
2018-04-28T03:35:06.968Z,4.80
2018-04-28T03:37:36.279Z,4.80
2018-04-28T03:43:06.712Z,4.80
2018-04-28T03:45:42.228Z,4.80
2018-04-28T03:51:17.080Z,4.80
2018-04-28T03:53:44.673Z,4.70
2018-04-28T03:56:13.119Z,4.70
2018-04-28T03:58:52.542Z,4.70
2018-04-28T04:01:33.842Z,4.60
2018-04-28T04:04:11.243Z,4.60
2018-04-28T04:06:53.516Z,4.60
2018-04-28T04:09:21.933Z,4.60
2018-04-28T04:15:01.148Z,4.60
2018-04-28T04:20:50.864Z,4.70
2018-04-28T04:23:39.134Z,4.60
2018-04-28T04:29:29.071Z,4.70
2018-04-28T04:32:04.320Z,4.70
2018-04-28T04:37:44.851Z,4.90
2018-04-28T04:43:18.995Z,4.90
2018-04-28T04:46:06.289Z,4.90
2018-04-28T04:52:06.337Z,4.90
2018-04-28T04:54:43.715Z,5.00
2018-04-28T04:57:20.404Z,5.10
2018-04-28T04:59:50.896Z,5.10
2018-04-28T05:02:26.092Z,5.20
2018-04-28T05:05:05.497Z,5.30
2018-04-28T05:07:36.629Z,5.50
2018-04-28T05:13:08.285Z,5.70
2018-04-28T05:15:42.457Z,5.90
2018-04-28T05:18:22.004Z,6.00
2018-04-28T05:21:00.374Z,6.10
2018-04-28T05:23:39.617Z,6.20
2018-04-28T05:26:13.995Z,6.30
2018-04-28T05:32:04.436Z,6.60
2018-04-28T05:34:37.606Z,6.70
2018-04-28T05:37:25.617Z,7.00
2018-04-28T05:43:12.189Z,7.10
2018-04-28T05:45:46.461Z,7.30
2018-04-28T05:48:41.401Z,7.50
2018-04-28T05:51:12.473Z,7.80
2018-04-28T05:57:14.269Z,8.30
2018-04-28T05:59:47.816Z,8.40
2018-04-28T06:02:32.010Z,8.50
2018-04-28T06:08:34.145Z,8.60
2018-04-28T06:14:30.383Z,8.90
2018-04-28T06:17:10.436Z,9.30
2018-04-28T06:19:50.729Z,9.50
2018-04-28T06:22:18.364Z,9.40
2018-04-28T06:24:46.001Z,9.70
2018-04-28T06:27:13.625Z,9.90
2018-04-28T06:29:41.279Z,10.10
2018-04-28T06:32:08.892Z,10.30
2018-04-28T06:34:37.293Z,10.60
2018-04-28T06:37:05.030Z,10.60
2018-04-28T06:39:32.651Z,10.80
2018-04-28T06:42:00.287Z,11.10
2018-04-28T06:44:27.903Z,11.30
2018-04-28T06:46:55.537Z,11.60
2018-04-28T06:49:23.158Z,11.90
2018-04-28T06:51:50.808Z,12.10
2018-04-28T06:54:19.199Z,12.50
2018-04-28T06:56:47.394Z,12.50
2018-04-28T06:59:15.178Z,12.70
2018-04-28T07:01:42.863Z,12.90
2018-04-28T07:04:11.124Z,13.00
2018-04-28T07:06:39.242Z,13.30
2018-04-28T07:09:06.959Z,13.20
2018-04-28T07:11:35.042Z,13.30
2018-04-28T07:14:03.329Z,13.70
2018-04-28T07:16:31.013Z,14.20
2018-04-28T07:18:58.739Z,14.40
2018-04-28T07:21:26.381Z,14.80
2018-04-28T07:23:54.045Z,15.00
2018-04-28T07:26:21.684Z,15.00
2018-04-28T07:28:50.088Z,15.70
2018-04-28T07:31:17.715Z,15.70
2018-04-28T07:33:45.377Z,15.90
2018-04-28T07:36:13.012Z,16.10
2018-04-28T07:38:41.423Z,16.20
2018-04-28T07:41:09.057Z,16.20
2018-04-28T07:43:36.708Z,16.50
2018-04-28T07:46:05.197Z,17.10
2018-04-28T07:48:34.022Z,17.00
2018-04-28T07:51:03.463Z,16.90
2018-04-28T07:53:31.804Z,16.90
2018-04-28T07:56:01.023Z,17.00
2018-04-28T07:58:29.044Z,17.00
2018-04-28T08:00:56.742Z,17.30
2018-04-28T08:03:24.346Z,17.10
2018-04-28T08:05:54.159Z,17.10
2018-04-28T08:08:22.331Z,17.00
2018-04-28T08:10:50.697Z,17.40
2018-04-28T08:13:19.081Z,17.50
2018-04-28T08:15:47.403Z,17.40
2018-04-28T08:18:15.075Z,17.50
2018-04-28T08:20:42.897Z,17.70
2018-04-28T08:23:11.308Z,17.70
2018-04-28T08:25:39.508Z,17.70
2018-04-28T08:28:11.590Z,18.20
2018-04-28T08:30:39.737Z,18.10
2018-04-28T08:33:09.060Z,18.10
2018-04-28T08:35:38.207Z,18.50
2018-04-28T08:38:05.947Z,18.50
2018-04-28T08:40:35.590Z,18.90
2018-04-28T08:43:04.173Z,18.90
2018-04-28T08:45:31.823Z,18.80
2018-04-28T08:47:59.502Z,18.50
2018-04-28T08:50:27.105Z,18.50
2018-04-28T08:52:54.762Z,18.40
2018-04-28T08:55:22.415Z,18.70
2018-04-28T09:00:29.395Z,19.10
2018-04-28T09:02:57.007Z,19.00
2018-04-28T09:05:24.674Z,19.30
2018-04-28T09:07:52.290Z,19.60
2018-04-28T09:10:20.243Z,19.80
2018-04-28T09:12:47.858Z,20.00
2018-04-28T09:15:15.512Z,20.20
2018-04-28T09:17:43.899Z,20.20
2018-04-28T09:20:11.556Z,20.20
2018-04-28T09:22:39.184Z,20.30
2018-04-28T09:25:07.358Z,20.40
2018-04-28T09:27:35.013Z,20.50
2018-04-28T09:30:03.286Z,20.30
2018-04-28T09:32:31.482Z,19.90
2018-04-28T09:35:01.277Z,20.10
2018-04-28T09:37:30.110Z,20.20
2018-04-28T09:39:58.422Z,20.20
2018-04-28T09:42:26.863Z,21.00
2018-04-28T09:44:54.468Z,21.00
2018-04-28T09:47:22.124Z,20.90
2018-04-28T09:49:49.774Z,21.20
2018-04-28T09:52:17.420Z,21.50
2018-04-28T09:54:45.048Z,21.80
2018-04-28T09:57:13.496Z,21.50
2018-04-28T09:59:41.699Z,21.50
2018-04-28T10:02:15.821Z,21.30
2018-04-28T10:04:44.215Z,21.70
2018-04-28T10:07:11.888Z,21.80
2018-04-28T10:09:39.504Z,21.10
2018-04-28T10:12:07.165Z,21.50
2018-04-28T10:14:34.931Z,22.10
2018-04-28T10:17:03.582Z,22.00
2018-04-28T10:19:33.668Z,21.90
2018-04-28T10:22:01.766Z,21.90
2018-04-28T10:24:30.119Z,21.80
2018-04-28T10:26:58.351Z,21.50
2018-04-28T10:29:27.202Z,21.70
2018-04-28T10:31:54.853Z,21.60
2018-04-28T10:34:23.251Z,22.00
2018-04-28T10:36:50.870Z,22.00
2018-04-28T10:39:19.018Z,22.00
2018-04-28T10:41:47.197Z,22.60
2018-04-28T10:44:15.128Z,22.90
2018-04-28T10:46:43.598Z,23.10
2018-04-28T10:49:11.205Z,23.10
2018-04-28T10:51:39.626Z,22.90
2018-04-28T10:54:07.247Z,22.90
2018-04-28T10:56:35.680Z,22.40
2018-04-28T10:59:04.216Z,22.30
2018-04-28T11:01:31.849Z,22.20
2018-04-28T11:03:59.455Z,22.80
2018-04-28T11:06:27.941Z,22.90
2018-04-28T11:08:55.550Z,22.70
2018-04-28T11:11:23.222Z,22.40
2018-04-28T11:13:50.844Z,22.60
2018-04-28T11:16:18.461Z,22.20
2018-04-28T11:18:47.447Z,22.60
2018-04-28T11:21:15.860Z,22.20
2018-04-28T11:23:43.485Z,22.20
2018-04-28T11:26:11.873Z,21.80
2018-04-28T11:28:39.635Z,21.80
2018-04-28T11:31:08.014Z,22.20
2018-04-28T11:33:35.661Z,22.20
2018-04-28T11:36:04.810Z,22.10
2018-04-28T11:38:33.044Z,22.10
2018-04-28T11:41:01.423Z,22.70
2018-04-28T11:43:29.049Z,22.60
2018-04-28T11:45:56.667Z,22.40
2018-04-28T11:48:24.299Z,22.10
2018-04-28T11:50:52.691Z,22.70
2018-04-28T11:53:20.344Z,22.70
2018-04-28T11:55:48.725Z,22.80
2018-04-28T11:58:17.186Z,23.10
2018-04-28T12:00:44.819Z,23.10
2018-04-28T12:03:12.468Z,22.80
2018-04-28T12:05:40.159Z,23.10
2018-04-28T12:08:07.754Z,23.80
2018-04-28T12:10:35.400Z,23.60
2018-04-28T12:13:04.726Z,22.80
2018-04-28T12:15:33.131Z,22.70
2018-04-28T12:18:00.801Z,22.90
2018-04-28T12:20:28.417Z,23.40
2018-04-28T12:22:56.066Z,23.70
2018-04-28T12:25:24.448Z,23.50
2018-04-28T12:27:52.897Z,23.60
2018-04-28T12:30:20.536Z,23.60
2018-04-28T12:32:48.174Z,23.10
2018-04-28T12:35:15.780Z,23.20
2018-04-28T12:37:43.449Z,23.20
2018-04-28T12:40:11.143Z,23.40
2018-04-28T12:42:38.812Z,23.50
2018-04-28T12:45:07.196Z,23.60
2018-04-28T12:47:34.818Z,23.60
2018-04-28T12:50:04.857Z,23.50
2018-04-28T12:52:32.914Z,23.50
2018-04-28T12:55:01.317Z,23.20
2018-04-28T12:57:28.983Z,23.10
2018-04-28T12:59:56.616Z,23.60
2018-04-28T13:02:25.618Z,23.50
2018-04-28T13:04:53.372Z,23.40
2018-04-28T13:07:21.754Z,23.80
2018-04-28T13:09:50.155Z,23.70
2018-04-28T13:12:17.784Z,23.70
2018-04-28T13:14:46.190Z,24.00
2018-04-28T13:17:13.800Z,24.00
2018-04-28T13:19:41.409Z,23.80
2018-04-28T13:22:09.053Z,24.20
2018-04-28T13:24:36.667Z,23.80
2018-04-28T13:27:05.115Z,24.40
2018-04-28T13:29:33.436Z,24.40
2018-04-28T13:32:01.077Z,23.70
2018-04-28T13:34:28.682Z,23.30
2018-04-28T13:36:57.087Z,23.20
2018-04-28T13:39:24.705Z,23.20
2018-04-28T13:41:52.335Z,23.00
2018-04-28T13:44:19.944Z,23.10
2018-04-28T13:46:48.350Z,23.10
2018-04-28T13:49:15.964Z,23.10
2018-04-28T13:51:43.633Z,23.80
2018-04-28T13:54:12.000Z,23.90
2018-04-28T13:56:39.641Z,23.80
2018-04-28T13:59:07.259Z,23.60
2018-04-28T14:01:34.876Z,24.00
2018-04-28T14:04:03.124Z,23.40
2018-04-28T14:06:30.722Z,23.60
2018-04-28T14:08:58.376Z,23.90
2018-04-28T14:11:25.988Z,23.90
2018-04-28T14:13:54.393Z,23.90
2018-04-28T14:16:22.019Z,24.00
2018-04-28T14:18:49.643Z,24.20
2018-04-28T14:21:17.262Z,24.00
2018-04-28T14:23:44.926Z,23.90
2018-04-28T14:26:12.540Z,23.80
2018-04-28T14:28:40.923Z,23.80
2018-04-28T14:31:08.546Z,23.80
2018-04-28T14:33:36.161Z,24.00
2018-04-28T14:36:04.365Z,24.60
2018-04-28T14:38:31.984Z,25.30
2018-04-28T14:40:59.630Z,24.80
2018-04-28T14:43:28.005Z,23.80
2018-04-28T14:45:56.414Z,24.00
2018-04-28T14:48:24.053Z,24.00
2018-04-28T14:50:52.464Z,24.20
2018-04-28T14:53:20.073Z,24.20
2018-04-28T14:55:47.698Z,24.30
2018-04-28T14:58:15.326Z,24.10
2018-04-28T15:00:42.955Z,24.20
2018-04-28T15:03:10.585Z,24.30
2018-04-28T15:05:38.239Z,24.10
2018-04-28T15:08:05.852Z,24.10
2018-04-28T15:10:35.637Z,24.20
2018-04-28T15:13:03.735Z,24.10
2018-04-28T15:15:32.115Z,24.50
2018-04-28T15:18:00.522Z,24.80
2018-04-28T15:20:28.214Z,24.80
2018-04-28T15:22:55.934Z,24.30
2018-04-28T15:25:23.522Z,23.50
2018-04-28T15:27:51.162Z,23.90
2018-04-28T15:30:18.800Z,24.70
2018-04-28T15:32:46.464Z,25.30
2018-04-28T15:35:14.870Z,24.90
2018-04-28T15:37:42.485Z,24.90
2018-04-28T15:40:10.901Z,26.00
2018-04-28T15:42:38.527Z,25.90
2018-04-28T15:45:06.919Z,24.20
2018-04-28T15:47:34.540Z,24.10
2018-04-28T15:50:03.310Z,23.60
2018-04-28T15:52:30.911Z,23.20
2018-04-28T15:54:59.383Z,23.20
2018-04-28T15:57:27.026Z,23.20
2018-04-28T15:59:54.655Z,22.90
2018-04-28T16:02:22.268Z,22.30
2018-04-28T16:04:50.712Z,22.00
2018-04-28T16:07:18.320Z,21.90
2018-04-28T16:09:46.693Z,21.80
2018-04-28T16:12:15.102Z,21.60
2018-04-28T16:14:42.751Z,21.60
2018-04-28T16:17:10.404Z,21.40
2018-04-28T16:19:38.789Z,21.00
2018-04-28T16:22:07.212Z,21.00
2018-04-28T16:24:34.824Z,21.00
2018-04-28T16:27:02.915Z,21.00
2018-04-28T16:29:30.525Z,21.00
2018-04-28T16:31:58.167Z,20.90
2018-04-28T16:34:25.794Z,20.80
2018-04-28T16:36:53.425Z,20.70
2018-04-28T16:39:21.857Z,20.80
2018-04-28T16:41:49.476Z,20.80
2018-04-28T16:44:17.969Z,20.70
2018-04-28T16:46:45.533Z,20.70
2018-04-28T16:49:13.231Z,20.80
2018-04-28T16:51:40.847Z,20.70
2018-04-28T16:54:08.484Z,20.70
2018-04-28T16:56:36.872Z,20.80
2018-04-28T16:59:05.354Z,20.70
2018-04-28T17:01:32.969Z,20.60
2018-04-28T17:04:00.635Z,20.60
2018-04-28T17:06:28.307Z,20.50
2018-04-28T17:08:55.925Z,20.60
2018-04-28T17:11:23.582Z,20.60
2018-04-28T17:13:51.205Z,20.60
2018-04-28T17:16:19.641Z,20.40
2018-04-28T17:18:47.854Z,20.40
2018-04-28T17:21:16.272Z,20.30
2018-04-28T17:23:43.937Z,20.30
2018-04-28T17:26:11.560Z,20.20
2018-04-28T17:28:39.942Z,20.10
2018-04-28T17:31:08.368Z,20.10
2018-04-28T17:33:35.986Z,20.00
2018-04-28T17:36:05.668Z,20.00
2018-04-28T17:38:34.288Z,20.00
2018-04-28T17:41:03.949Z,20.00
2018-04-28T17:43:31.568Z,20.00
2018-04-28T17:45:59.201Z,19.90
2018-04-28T17:48:27.612Z,19.90
2018-04-28T17:50:55.974Z,19.90
2018-04-28T17:53:24.397Z,19.90
2018-04-28T17:55:52.004Z,19.90
2018-04-28T17:58:20.498Z,19.70
2018-04-28T18:00:48.109Z,19.70
2018-04-28T18:03:15.836Z,19.60
2018-04-28T18:05:43.636Z,19.50
2018-04-28T18:08:11.304Z,19.50
2018-04-28T18:10:38.975Z,19.40
2018-04-28T18:13:06.628Z,19.30
2018-04-28T18:15:35.599Z,19.20
2018-04-28T18:18:04.071Z,19.10
2018-04-28T18:20:31.740Z,19.00
2018-04-28T18:22:59.381Z,18.90
2018-04-28T18:25:27.025Z,18.80
2018-04-28T18:27:54.629Z,18.80
2018-04-28T18:30:22.285Z,18.60
2018-04-28T18:32:49.912Z,18.40
2018-04-28T18:35:17.549Z,18.30
2018-04-28T18:37:45.917Z,17.90
2018-04-28T18:40:13.573Z,17.90
2018-04-28T18:42:41.179Z,17.90
2018-04-28T18:45:09.568Z,17.90
2018-04-28T18:47:37.201Z,17.90
2018-04-28T18:50:04.840Z,17.90
2018-04-28T18:52:34.567Z,17.80
2018-04-28T18:55:03.000Z,17.90
2018-04-28T18:57:30.647Z,17.80
2018-04-28T18:59:58.293Z,17.80
2018-04-28T19:02:25.945Z,17.80
2018-04-28T19:04:53.564Z,17.90
2018-04-28T19:07:21.191Z,17.90
2018-04-28T19:09:48.800Z,17.90
2018-04-28T19:12:17.204Z,17.60
2018-04-28T19:14:44.802Z,17.60
2018-04-28T19:17:12.448Z,17.40
2018-04-28T19:19:40.832Z,17.20
2018-04-28T19:22:08.491Z,17.20
2018-04-28T19:24:36.122Z,17.20
2018-04-28T19:27:04.687Z,17.20
2018-04-28T19:29:34.023Z,17.10
2018-04-28T19:32:01.635Z,17.10
2018-04-28T19:34:30.045Z,17.10
2018-04-28T19:36:57.665Z,17.10
2018-04-28T19:39:25.283Z,17.00
2018-04-28T19:41:52.898Z,17.00
2018-04-28T19:44:21.303Z,17.00
2018-04-28T19:46:48.916Z,17.00
2018-04-28T19:49:16.543Z,17.00
2018-04-28T19:51:44.184Z,16.90
2018-04-28T19:54:11.797Z,16.90
2018-04-28T19:56:39.453Z,16.80
2018-04-28T19:59:07.065Z,16.70
2018-04-28T20:01:34.704Z,16.70
2018-04-28T20:04:03.138Z,16.60
2018-04-28T20:06:30.774Z,16.60
2018-04-28T20:08:58.386Z,16.50
2018-04-28T20:11:26.020Z,16.50
2018-04-28T20:13:53.613Z,16.50
2018-04-28T20:16:21.598Z,16.50
2018-04-28T20:18:49.950Z,16.40
2018-04-28T20:21:17.572Z,16.40
2018-04-28T20:23:56.929Z,16.40
2018-04-28T20:26:24.559Z,16.40
2018-04-28T20:28:52.164Z,16.30
2018-04-28T20:31:19.952Z,16.30
2018-04-28T20:33:48.331Z,16.10
2018-04-28T20:36:16.710Z,16.00
2018-04-28T20:38:45.137Z,15.90
2018-04-28T20:41:12.757Z,15.90
2018-04-28T20:43:40.366Z,15.80
2018-04-28T20:46:08.004Z,15.80
2018-04-28T20:48:35.634Z,15.70
2018-04-28T20:51:05.380Z,15.50
2018-04-28T20:53:33.774Z,15.50
2018-04-28T20:56:01.419Z,15.50
2018-04-28T20:58:29.037Z,15.50
2018-04-28T21:00:56.721Z,15.40
2018-04-28T21:03:24.332Z,15.30
2018-04-28T21:05:51.946Z,15.30
2018-04-28T21:08:19.580Z,15.20
2018-04-28T21:10:47.957Z,15.10
2018-04-28T21:13:16.364Z,15.10
2018-04-28T21:15:43.972Z,15.10
2018-04-28T21:18:11.596Z,15.10
2018-04-28T21:20:39.205Z,15.10
2018-04-28T21:23:06.879Z,15.10
2018-04-28T21:25:35.257Z,15.00
2018-04-28T21:28:04.891Z,15.00
2018-04-28T21:30:32.987Z,15.00
2018-04-28T21:33:00.724Z,14.90
2018-04-28T21:35:28.321Z,14.80
2018-04-28T21:37:55.930Z,14.80
2018-04-28T21:40:23.580Z,14.80
2018-04-28T21:42:52.036Z,14.80
2018-04-28T21:45:19.681Z,14.80
2018-04-28T21:47:47.301Z,14.70
2018-04-28T21:50:14.935Z,14.70
2018-04-28T21:52:43.405Z,14.60
2018-04-28T21:55:11.048Z,14.60
2018-04-28T21:57:38.650Z,14.50
2018-04-28T22:00:07.047Z,14.50
2018-04-28T22:02:35.387Z,14.40
2018-04-28T22:05:03.411Z,14.50
2018-04-28T22:07:31.104Z,14.40
2018-04-28T22:09:58.737Z,14.40
2018-04-28T22:12:26.365Z,14.30
2018-04-28T22:14:53.965Z,14.30
2018-04-28T22:17:21.680Z,14.30
2018-04-28T22:19:50.052Z,14.30
2018-04-28T22:22:18.450Z,14.30
2018-04-28T22:24:46.081Z,14.30
2018-04-28T22:27:13.763Z,14.20
2018-04-28T22:29:42.125Z,14.10
2018-04-28T22:32:09.796Z,14.10
2018-04-28T22:34:38.176Z,13.90
2018-04-28T22:37:06.565Z,13.80
2018-04-28T22:39:35.137Z,13.80
2018-04-28T22:42:03.526Z,13.90
2018-04-28T22:44:31.140Z,13.80
2018-04-28T22:46:58.826Z,13.90
2018-04-28T22:49:27.190Z,13.80
2018-04-28T22:51:54.872Z,13.80
2018-04-28T22:54:23.246Z,13.80
2018-04-28T22:56:51.723Z,13.70
2018-04-28T22:59:19.328Z,13.70
2018-04-28T23:01:47.211Z,13.70
2018-04-28T23:04:14.820Z,13.60
2018-04-28T23:06:43.325Z,13.60
2018-04-28T23:09:10.918Z,13.50
2018-04-28T23:11:38.521Z,13.60
2018-04-28T23:14:06.923Z,13.50
2018-04-28T23:16:34.740Z,13.50
2018-04-28T23:19:02.983Z,13.40
2018-04-28T23:21:30.676Z,13.30
2018-04-28T23:23:58.308Z,13.30
2018-04-28T23:26:25.926Z,13.30
2018-04-28T23:28:54.387Z,13.30
2018-04-28T23:31:22.043Z,13.20
2018-04-28T23:33:49.680Z,13.20
2018-04-28T23:36:17.296Z,13.20
2018-04-28T23:38:44.932Z,13.10
2018-04-28T23:41:13.403Z,13.10
2018-04-28T23:43:41.039Z,13.00
2018-04-28T23:46:08.738Z,13.00
2018-04-28T23:48:37.117Z,12.90
2018-04-28T23:51:05.606Z,12.90
2018-04-28T23:53:35.315Z,12.80
2018-04-28T23:56:04.359Z,12.80
2018-04-28T23:58:31.980Z,12.80
